createdAt,value
2019-06-07T00:00:38.662Z,17.82
2019-06-07T00:02:47.992Z,12.90
2019-06-07T00:05:21.384Z,13.43
2019-06-07T00:07:53.861Z,14.27
2019-06-07T00:10:35.809Z,15.40
2019-06-07T00:13:01.439Z,12.43
2019-06-07T00:15:33.696Z,11.48
2019-06-07T00:18:10.260Z,17.50
2019-06-07T00:20:40.329Z,15.32
2019-06-07T00:23:15.749Z,17.20
2019-06-07T00:25:46.958Z,24.65
2019-06-07T00:28:20.381Z,11.80
2019-06-07T00:30:52.947Z,14.58
2019-06-07T00:33:25.674Z,12.82
2019-06-07T00:35:58.104Z,19.98
2019-06-07T00:38:30.555Z,19.90
2019-06-07T00:41:02.700Z,18.92
2019-06-07T00:43:35.228Z,24.77
2019-06-07T00:46:07.516Z,14.83
2019-06-07T00:48:39.847Z,12.98
2019-06-07T00:51:14.066Z,17.20
2019-06-07T00:53:46.341Z,15.98
2019-06-07T00:56:20.645Z,13.45
2019-06-07T00:59:10.450Z,14.75
2019-06-07T01:01:27.793Z,17.75
2019-06-07T01:04:00.291Z,17.67
2019-06-07T01:06:32.814Z,19.90
2019-06-07T01:09:08.028Z,16.27
2019-06-07T01:11:40.258Z,13.75
2019-06-07T01:14:14.593Z,14.13
2019-06-07T01:16:57.042Z,14.38
2019-06-07T01:19:24.409Z,16.70
2019-06-07T01:21:56.499Z,17.95
2019-06-07T01:24:29.041Z,18.05
2019-06-07T01:27:01.302Z,14.85
2019-06-07T01:29:33.563Z,14.98
2019-06-07T01:32:06.114Z,11.45
2019-06-07T01:34:38.597Z,17.67
2019-06-07T01:37:11.209Z,13.50
2019-06-07T01:39:43.478Z,15.72
2019-06-07T01:42:18.074Z,11.90
2019-06-07T01:47:25.553Z,14.10
2019-06-07T01:52:29.573Z,14.43
2019-06-07T01:55:01.865Z,12.28
2019-06-07T01:57:47.468Z,14.38
2019-06-07T02:00:09.843Z,19.10
2019-06-07T02:02:41.987Z,17.48
2019-06-07T02:05:15.156Z,17.73
2019-06-07T02:07:48.355Z,17.12
2019-06-07T02:10:24.612Z,15.90
2019-06-07T02:12:55.701Z,13.40
2019-06-07T02:15:36.141Z,18.25
2019-06-07T02:18:03.428Z,22.32
2019-06-07T02:20:35.991Z,20.95
2019-06-07T02:23:08.462Z,17.42
2019-06-07T02:25:49.577Z,21.07
2019-06-07T02:28:29.997Z,17.95
2019-06-07T02:33:27.904Z,15.03
2019-06-07T02:35:56.655Z,14.10
2019-06-07T02:38:37.290Z,12.55
2019-06-07T02:41:07.939Z,17.73
2019-06-07T02:43:40.444Z,16.77
2019-06-07T02:46:31.895Z,18.80
2019-06-07T02:48:57.816Z,34.20
2019-06-07T02:51:35.808Z,34.38
2019-06-07T02:54:04.751Z,42.48
2019-06-07T02:56:52.490Z,34.48
2019-06-07T02:59:11.087Z,30.23
2019-06-07T03:01:43.691Z,30.40
2019-06-07T03:04:17.041Z,30.17
2019-06-07T03:06:53.031Z,23.42
2019-06-07T03:09:26.513Z,22.45
2019-06-07T03:12:03.111Z,23.60
2019-06-07T03:14:36.221Z,22.32
2019-06-07T03:17:10.215Z,23.35
2019-06-07T03:22:19.706Z,25.43
2019-06-07T03:24:54.169Z,22.32
2019-06-07T03:29:59.599Z,17.62
2019-06-07T03:32:36.860Z,27.25
2019-06-07T03:35:06.870Z,19.52
2019-06-07T03:37:42.237Z,15.23
2019-06-07T03:40:17.872Z,19.37
2019-06-07T03:42:51.563Z,18.37
2019-06-07T03:45:23.886Z,14.68
2019-06-07T03:47:56.483Z,15.38
2019-06-07T03:50:31.959Z,21.52
2019-06-07T03:53:02.773Z,21.20
2019-06-07T03:55:39.070Z,24.37
2019-06-07T04:00:43.659Z,18.17
2019-06-07T04:03:32.789Z,18.00
2019-06-07T04:05:50.969Z,17.90
2019-06-07T04:08:23.531Z,16.75
2019-06-07T04:11:00.047Z,18.60
2019-06-07T04:13:34.842Z,18.90
2019-06-07T04:16:07.441Z,17.80
2019-06-07T04:18:40.760Z,22.77
2019-06-07T04:21:13.768Z,14.18
2019-06-07T04:23:46.069Z,15.18
2019-06-07T04:26:18.611Z,17.75
2019-06-07T04:29:31.673Z,22.95
2019-06-07T04:31:25.475Z,21.25
2019-06-07T04:33:58.141Z,19.67
2019-06-07T04:36:45.937Z,14.87
2019-06-07T04:39:07.745Z,15.95
2019-06-07T04:41:41.393Z,14.80
2019-06-07T04:44:15.827Z,17.42
2019-06-07T04:46:51.004Z,15.85
2019-06-07T04:49:25.574Z,13.70
2019-06-07T04:51:57.801Z,12.85
2019-06-07T04:54:31.494Z,15.68
2019-06-07T05:02:12.714Z,13.25
2019-06-07T05:04:46.706Z,12.82
2019-06-07T05:07:19.008Z,16.55
2019-06-07T05:09:51.177Z,13.50
2019-06-07T05:12:24.590Z,13.50
2019-06-07T05:14:57.116Z,11.30
2019-06-07T05:17:31.730Z,12.20
2019-06-07T05:20:05.040Z,16.65
2019-06-07T05:22:40.866Z,9.25
2019-06-07T05:27:46.836Z,14.45
2019-06-07T05:31:02.996Z,10.55
2019-06-07T05:33:12.820Z,11.50
2019-06-07T05:35:45.015Z,13.03
2019-06-07T05:38:17.359Z,7.75
2019-06-07T05:40:49.836Z,10.58
2019-06-07T05:43:25.324Z,5.28
2019-06-07T05:45:57.546Z,8.38
2019-06-07T05:48:29.781Z,13.78
2019-06-07T05:51:02.487Z,12.50
2019-06-07T05:53:39.968Z,13.32
2019-06-07T05:56:09.970Z,12.07
2019-06-07T05:58:44.737Z,13.95
2019-06-07T06:03:51.596Z,13.95
2019-06-07T06:06:24.019Z,8.73
2019-06-07T06:09:12.911Z,8.18
2019-06-07T06:11:47.037Z,9.18
2019-06-07T06:14:08.463Z,4.95
2019-06-07T06:16:44.491Z,6.80
2019-06-07T06:19:15.770Z,7.20
2019-06-07T06:21:48.740Z,5.40
2019-06-07T06:24:22.739Z,9.38
2019-06-07T06:27:12.106Z,10.87
2019-06-07T06:29:30.379Z,5.12
2019-06-07T06:32:40.650Z,10.82
2019-06-07T06:34:43.240Z,5.85
2019-06-07T06:37:13.117Z,11.12
2019-06-07T06:39:49.537Z,8.00
2019-06-07T06:44:54.225Z,7.28
2019-06-07T06:47:26.539Z,4.72
2019-06-07T06:49:58.675Z,7.85
2019-06-07T06:52:31.079Z,8.25
2019-06-07T06:55:11.507Z,8.40
2019-06-07T06:57:45.879Z,8.90
2019-06-07T07:00:19.758Z,6.58
2019-06-07T07:03:41.932Z,7.58
2019-06-07T07:08:01.338Z,5.67
2019-06-07T07:10:43.081Z,6.65
2019-06-07T07:13:16.039Z,5.22
2019-06-07T07:15:55.110Z,7.08
2019-06-07T07:18:25.183Z,5.00
2019-06-07T07:20:57.744Z,6.40
2019-06-07T07:23:30.126Z,5.83
2019-06-07T07:26:03.269Z,8.75
2019-06-07T07:28:35.427Z,5.78
2019-06-07T07:31:09.528Z,8.30
2019-06-07T07:34:23.824Z,6.92
2019-06-07T07:36:37.393Z,4.22
2019-06-07T07:39:00.736Z,5.58
2019-06-07T07:41:27.062Z,3.92
2019-06-07T07:44:07.076Z,3.70
2019-06-07T07:46:35.587Z,9.55
2019-06-07T07:49:08.017Z,3.50
2019-06-07T07:51:41.064Z,12.10
2019-06-07T07:54:13.649Z,4.12
2019-06-07T07:56:47.123Z,4.92
2019-06-07T07:59:41.244Z,4.83
2019-06-07T08:01:58.734Z,5.75
2019-06-07T08:05:12.938Z,7.00
2019-06-07T08:07:04.837Z,10.98
2019-06-07T08:09:37.245Z,7.30
2019-06-07T08:12:09.593Z,7.78
2019-06-07T08:14:43.749Z,5.72
2019-06-07T08:17:17.123Z,4.20
2019-06-07T08:19:52.202Z,5.08
2019-06-07T08:22:24.044Z,5.03
2019-06-07T08:24:59.826Z,24.92
2019-06-07T08:27:30.508Z,12.45
2019-06-07T08:32:45.444Z,13.50
2019-06-07T08:36:02.607Z,7.33
2019-06-07T08:38:22.062Z,10.05
2019-06-07T08:40:28.524Z,4.47
2019-06-07T08:43:18.426Z,9.53
2019-06-07T08:45:38.175Z,4.92
2019-06-07T08:48:27.153Z,11.95
2019-06-07T08:53:18.299Z,6.15
2019-06-07T08:55:54.228Z,6.22
2019-06-07T08:58:24.767Z,5.12
2019-06-07T09:01:03.668Z,13.72
2019-06-07T09:03:32.623Z,7.70
2019-06-07T09:06:53.440Z,10.93
2019-06-07T09:08:52.005Z,11.68
2019-06-07T09:11:52.435Z,11.20
2019-06-07T09:14:26.783Z,8.18
2019-06-07T09:17:07.971Z,6.72
2019-06-07T09:19:36.197Z,11.30
2019-06-07T09:22:11.286Z,11.53
2019-06-07T09:24:42.714Z,5.05
2019-06-07T09:27:15.516Z,10.90
2019-06-07T09:29:47.917Z,9.28
2019-06-07T09:32:20.276Z,9.48
2019-06-07T09:34:52.504Z,5.87
2019-06-07T09:40:19.616Z,7.28
2019-06-07T09:42:38.517Z,5.62
2019-06-07T09:45:13.871Z,5.85
2019-06-07T09:47:51.805Z,10.58
2019-06-07T09:50:23.984Z,10.08
2019-06-07T09:53:10.102Z,5.22
2019-06-07T09:55:34.836Z,5.28
2019-06-07T09:58:49.720Z,6.97
2019-06-07T10:00:47.869Z,7.40
2019-06-07T10:03:32.700Z,7.62
2019-06-07T10:06:11.052Z,10.98
2019-06-07T10:09:57.165Z,6.22
2019-06-07T10:11:17.924Z,4.80
2019-06-07T10:13:55.097Z,6.85
2019-06-07T10:16:27.458Z,9.43
2019-06-07T10:19:01.766Z,7.50
2019-06-07T10:21:37.299Z,9.40
2019-06-07T10:26:42.099Z,6.20
2019-06-07T10:29:14.417Z,6.28
2019-06-07T10:31:49.427Z,3.85
2019-06-07T10:34:21.947Z,6.83
2019-06-07T10:36:56.003Z,5.33
2019-06-07T10:39:28.281Z,8.57
2019-06-07T10:42:03.906Z,8.45
2019-06-07T10:44:38.281Z,10.80
2019-06-07T10:47:12.133Z,6.80
2019-06-07T10:52:15.729Z,6.92
2019-06-07T10:54:49.416Z,10.20
2019-06-07T10:57:21.898Z,11.93
2019-06-07T10:59:55.385Z,9.20
2019-06-07T11:02:28.951Z,11.03
2019-06-07T11:05:07.962Z,14.45
2019-06-07T11:07:40.476Z,10.03
2019-06-07T11:10:18.804Z,6.75
2019-06-07T11:12:47.067Z,9.10
2019-06-07T11:15:19.851Z,10.60
2019-06-07T11:17:52.084Z,8.83
2019-06-07T11:20:26.378Z,9.05
2019-06-07T11:23:00.908Z,8.90
2019-06-07T11:25:34.177Z,7.55
2019-06-07T11:28:08.369Z,8.05
2019-06-07T11:30:42.510Z,6.58
2019-06-07T11:33:16.505Z,6.25
2019-06-07T11:35:51.597Z,9.08
2019-06-07T11:38:23.594Z,9.55
2019-06-07T11:40:57.831Z,8.25
2019-06-07T11:43:29.892Z,10.88
2019-06-07T11:46:02.189Z,7.72
2019-06-07T11:48:36.168Z,9.13
2019-06-07T11:51:08.620Z,7.80
2019-06-07T11:53:44.286Z,4.37
2019-06-07T11:56:18.037Z,11.70
2019-06-07T11:58:50.352Z,5.62
2019-06-07T12:01:22.945Z,6.78
2019-06-07T12:03:58.765Z,6.15
2019-06-07T12:06:30.065Z,8.70
2019-06-07T12:09:02.498Z,12.90
2019-06-07T12:11:36.632Z,5.47
2019-06-07T12:14:08.845Z,13.60
2019-06-07T12:16:42.725Z,3.50
2019-06-07T12:19:16.018Z,6.75
2019-06-07T12:21:51.401Z,9.30
2019-06-07T12:24:24.819Z,2.67
2019-06-07T12:26:57.908Z,3.70
2019-06-07T12:29:30.166Z,14.00
2019-06-07T12:32:02.453Z,4.47
2019-06-07T12:34:34.615Z,7.53
2019-06-07T12:37:07.049Z,5.83
2019-06-07T12:39:39.194Z,9.43
2019-06-07T12:42:12.423Z,5.23
2019-06-07T12:44:45.396Z,6.15
2019-06-07T12:47:18.989Z,8.80
2019-06-07T12:49:51.112Z,7.17
2019-06-07T12:52:24.656Z,4.65
2019-06-07T12:54:56.872Z,5.95
2019-06-07T12:57:28.915Z,7.42
2019-06-07T13:00:01.152Z,7.22
2019-06-07T13:02:33.678Z,6.70
2019-06-07T13:05:07.877Z,4.28
2019-06-07T13:07:39.962Z,9.10
2019-06-07T13:10:12.650Z,9.95
2019-06-07T13:12:49.285Z,4.92
2019-06-07T13:15:26.087Z,6.85
2019-06-07T13:18:00.113Z,3.87
2019-06-07T13:20:32.511Z,8.50
2019-06-07T13:23:07.083Z,15.33
2019-06-07T13:25:46.839Z,8.38
2019-06-07T13:28:22.564Z,9.58
2019-06-07T13:30:56.383Z,8.43
2019-06-07T13:33:35.478Z,9.08
2019-06-07T13:36:03.129Z,5.20
2019-06-07T13:38:36.931Z,18.45
2019-06-07T13:41:09.100Z,15.58
2019-06-07T13:43:43.613Z,16.00
2019-06-07T13:46:27.140Z,16.65
2019-06-07T13:49:13.573Z,10.30
2019-06-07T13:51:54.306Z,11.97
2019-06-07T13:54:33.132Z,14.07
2019-06-07T13:57:11.256Z,9.55
2019-06-07T13:59:52.642Z,15.20
2019-06-07T14:02:45.633Z,11.83
2019-06-07T14:05:18.792Z,14.95
2019-06-07T14:07:51.057Z,16.35
2019-06-07T14:10:25.506Z,23.83
2019-06-07T14:12:57.844Z,10.82
2019-06-07T14:15:34.134Z,8.40
2019-06-07T14:20:36.033Z,11.05
2019-06-07T14:23:09.088Z,15.72
2019-06-07T14:25:42.612Z,13.58
2019-06-07T14:28:15.421Z,10.38
2019-06-07T14:30:48.029Z,13.83
2019-06-07T14:33:23.476Z,15.05
2019-06-07T14:35:55.598Z,13.22
2019-06-07T14:38:31.249Z,12.63
2019-06-07T14:41:03.484Z,16.05
2019-06-07T14:46:12.784Z,12.45
2019-06-07T14:48:45.798Z,17.90
2019-06-07T14:51:18.615Z,18.87
2019-06-07T14:53:50.894Z,13.60
2019-06-07T14:56:23.090Z,12.50
2019-06-07T14:58:55.448Z,10.58
2019-06-07T15:01:28.480Z,6.83
2019-06-07T15:04:01.182Z,11.80
2019-06-07T15:06:34.938Z,14.98
2019-06-07T15:09:07.867Z,12.30
2019-06-07T15:11:40.788Z,10.13
2019-06-07T15:14:16.627Z,16.57
2019-06-07T15:16:47.161Z,7.28
2019-06-07T15:19:19.249Z,7.75
2019-06-07T15:21:51.418Z,9.90
2019-06-07T15:24:24.243Z,10.20
2019-06-07T15:26:56.680Z,8.60
2019-06-07T15:29:29.873Z,9.03
2019-06-07T15:32:01.977Z,7.85
2019-06-07T15:34:34.362Z,12.15
2019-06-07T15:37:06.559Z,11.68
2019-06-07T15:39:39.761Z,8.73
2019-06-07T15:42:11.843Z,10.88
2019-06-07T15:47:18.254Z,12.10
2019-06-07T15:49:50.925Z,11.15
2019-06-07T15:52:23.175Z,8.33
2019-06-07T15:54:55.596Z,9.78
2019-06-07T15:57:27.713Z,10.88
2019-06-07T15:59:59.854Z,10.18
2019-06-07T16:02:33.519Z,9.43
2019-06-07T16:05:06.993Z,10.60
2019-06-07T16:07:40.550Z,18.87
2019-06-07T16:10:16.285Z,12.43
2019-06-07T16:12:59.622Z,15.75
2019-06-07T16:15:22.934Z,32.73
2019-06-07T16:17:55.339Z,16.55
2019-06-07T16:20:27.963Z,15.78
2019-06-07T16:23:02.019Z,19.45
2019-06-07T16:25:35.808Z,13.88
2019-06-07T16:28:09.174Z,23.12
2019-06-07T16:30:42.666Z,16.25
2019-06-07T16:33:15.211Z,22.17
2019-06-07T16:35:47.305Z,16.48
2019-06-07T16:38:19.751Z,19.15
2019-06-07T16:40:51.849Z,26.17
2019-06-07T16:43:24.350Z,24.25
2019-06-07T16:45:56.490Z,25.50
2019-06-07T16:48:28.560Z,20.72
2019-06-07T16:51:00.673Z,20.05
2019-06-07T16:53:32.902Z,17.42
2019-06-07T16:56:05.738Z,15.75
2019-06-07T16:58:40.215Z,14.85
2019-06-07T17:01:12.546Z,17.92
2019-06-07T17:03:45.712Z,20.70
2019-06-07T17:06:18.320Z,23.85
2019-06-07T17:08:50.911Z,24.85
2019-06-07T17:11:23.499Z,21.45
2019-06-07T17:13:55.931Z,21.93
2019-06-07T17:16:29.434Z,20.17
2019-06-07T17:19:02.038Z,21.48
2019-06-07T17:21:34.238Z,26.45
2019-06-07T17:24:06.445Z,20.70
2019-06-07T17:26:39.391Z,26.73
2019-06-07T17:29:12.863Z,19.13
2019-06-07T17:31:46.416Z,22.93
2019-06-07T17:34:18.706Z,23.98
2019-06-07T17:36:51.120Z,30.12
2019-06-07T17:39:23.960Z,26.07
2019-06-07T17:42:02.185Z,25.95
2019-06-07T17:44:30.643Z,23.35
2019-06-07T17:47:03.276Z,27.45
2019-06-07T17:49:37.359Z,24.85
2019-06-07T17:54:41.800Z,21.60
2019-06-07T17:57:14.232Z,29.50
2019-06-07T17:59:46.731Z,25.52
2019-06-07T18:02:19.087Z,26.93
2019-06-07T18:04:53.370Z,21.00
2019-06-07T18:07:27.375Z,23.90
2019-06-07T18:10:01.200Z,24.27
2019-06-07T18:12:33.579Z,22.35
2019-06-07T18:15:11.530Z,25.90
2019-06-07T18:17:44.565Z,21.55
2019-06-07T18:20:17.589Z,26.75
2019-06-07T18:22:51.187Z,25.52
2019-06-07T18:25:23.716Z,24.80
2019-06-07T18:27:55.973Z,27.10
2019-06-07T18:30:29.326Z,25.15
2019-06-07T18:33:01.742Z,23.85
2019-06-07T18:35:34.196Z,26.82
2019-06-07T18:38:10.775Z,32.63
2019-06-07T18:40:42.297Z,26.97
2019-06-07T18:43:14.376Z,29.90
2019-06-07T18:45:47.313Z,31.52
2019-06-07T18:48:20.524Z,29.23
2019-06-07T18:50:53.119Z,26.80
2019-06-07T18:53:25.574Z,28.07
2019-06-07T18:55:58.802Z,29.15
2019-06-07T18:58:31.639Z,25.43
2019-06-07T19:01:04.080Z,27.02
2019-06-07T19:03:36.426Z,24.23
2019-06-07T19:06:08.970Z,32.95
2019-06-07T19:08:42.997Z,25.65
2019-06-07T19:11:15.938Z,37.38
2019-06-07T19:13:48.895Z,25.35
2019-06-07T19:16:22.114Z,25.20
2019-06-07T19:18:55.882Z,30.95
2019-06-07T19:21:32.083Z,30.92
2019-06-07T19:24:02.450Z,26.90
2019-06-07T19:26:34.873Z,29.77
2019-06-07T19:29:07.576Z,27.82
2019-06-07T19:31:40.551Z,24.12
2019-06-07T19:34:13.302Z,21.37
2019-06-07T19:36:49.046Z,26.85
2019-06-07T19:39:20.265Z,24.80
2019-06-07T19:41:53.918Z,26.75
2019-06-07T19:44:26.331Z,18.45
2019-06-07T19:47:00.723Z,20.32
2019-06-07T19:49:33.117Z,20.30
2019-06-07T19:52:05.653Z,18.90
2019-06-07T19:54:39.150Z,14.20
2019-06-07T19:57:13.411Z,21.17
2019-06-07T19:59:49.052Z,15.05
2019-06-07T20:02:21.733Z,22.90
2019-06-07T20:04:57.309Z,20.48
2019-06-07T20:07:30.044Z,16.82
2019-06-07T20:10:03.036Z,22.62
2019-06-07T20:12:43.888Z,21.70
2019-06-07T20:15:35.190Z,25.08
2019-06-07T20:18:07.965Z,24.50
2019-06-07T20:20:40.592Z,18.48
2019-06-07T20:23:14.568Z,22.67
2019-06-07T20:25:49.333Z,21.05
2019-06-07T20:28:22.887Z,22.15
2019-06-07T20:30:57.648Z,14.55
2019-06-07T20:33:36.941Z,17.65
2019-06-07T20:36:09.263Z,15.13
2019-06-07T20:38:46.434Z,21.23
2019-06-07T20:41:19.314Z,45.83
2019-06-07T20:43:51.938Z,59.35
2019-06-07T20:46:25.655Z,45.45
2019-06-07T20:51:32.365Z,44.13
2019-06-07T20:54:07.411Z,36.13
2019-06-07T20:56:39.874Z,30.68
2019-06-07T20:59:13.958Z,22.10
2019-06-07T21:04:17.906Z,21.93
2019-06-07T21:06:50.291Z,26.73
2019-06-07T21:09:22.811Z,19.37
2019-06-07T21:11:57.209Z,18.80
2019-06-07T21:14:30.532Z,23.70
2019-06-07T21:17:04.097Z,13.10
2019-06-07T21:19:37.776Z,12.90
2019-06-07T21:22:11.216Z,17.32
2019-06-07T21:24:43.658Z,13.20
2019-06-07T21:27:16.071Z,11.95
2019-06-07T21:29:49.687Z,13.70
2019-06-07T21:32:22.337Z,19.92
2019-06-07T21:34:55.796Z,15.85
2019-06-07T21:37:29.658Z,15.93
2019-06-07T21:40:04.156Z,11.40
2019-06-07T21:42:36.919Z,10.68
2019-06-07T21:45:11.891Z,13.48
2019-06-07T21:47:44.434Z,18.85
2019-06-07T21:50:16.937Z,13.80
2019-06-07T21:52:49.163Z,10.78
2019-06-07T21:55:23.215Z,14.35
2019-06-07T21:57:57.590Z,13.10
2019-06-07T22:00:43.626Z,15.03
2019-06-07T22:03:17.482Z,12.47
2019-06-07T22:05:49.890Z,8.38
2019-06-07T22:08:23.007Z,12.27
2019-06-07T22:10:55.445Z,9.10
2019-06-07T22:13:28.426Z,8.60
2019-06-07T22:16:00.880Z,7.87
2019-06-07T22:18:33.789Z,13.10
2019-06-07T22:21:06.468Z,7.90
2019-06-07T22:23:38.651Z,11.40
2019-06-07T22:26:11.334Z,13.93
2019-06-07T22:28:44.124Z,8.30
2019-06-07T22:31:16.554Z,13.98
2019-06-07T22:33:48.879Z,14.43
2019-06-07T22:36:22.344Z,10.03
2019-06-07T22:38:54.534Z,13.78
2019-06-07T22:41:26.724Z,7.75
2019-06-07T22:43:58.982Z,6.95
2019-06-07T22:46:37.480Z,7.33
2019-06-07T22:51:36.640Z,12.60
2019-06-07T22:54:09.560Z,8.65
2019-06-07T22:56:46.428Z,9.98
2019-06-07T22:59:20.450Z,11.78
2019-06-07T23:01:52.453Z,13.22
2019-06-07T23:04:24.836Z,16.20
2019-06-07T23:06:57.354Z,9.55
2019-06-07T23:09:30.544Z,9.28
2019-06-07T23:12:02.968Z,10.28
2019-06-07T23:14:35.136Z,8.55
2019-06-07T23:17:09.484Z,6.15
2019-06-07T23:19:42.031Z,6.22
2019-06-07T23:22:14.440Z,4.78
2019-06-07T23:24:46.601Z,6.17
2019-06-07T23:27:18.699Z,8.55
2019-06-07T23:29:50.858Z,9.03
2019-06-07T23:32:23.169Z,9.98
2019-06-07T23:34:55.283Z,5.60
2019-06-07T23:37:30.289Z,8.28
2019-06-07T23:40:02.514Z,9.25
2019-06-07T23:42:34.870Z,6.85
2019-06-07T23:45:08.237Z,14.28
2019-06-07T23:47:40.858Z,5.62
2019-06-07T23:50:13.728Z,8.45
2019-06-07T23:52:45.898Z,6.97
2019-06-07T23:55:18.352Z,10.75
2019-06-07T23:57:50.560Z,9.70
